Aérodrome :
LOGIN :

S'inscrire | Disclaimer

   EN    FR    IT 

 










Légende :    VFR   VFR Marginal   IFR   IFR Intensif   IFR Très Intensif
Visi : 
Plafond : 
>= 8 km
>= 3000ft
5 à 8 km
1000 à 3000 ft
1500m à 5 km
500 à 1000 ft
800 à 1500m
200 à 500 ft
< 800m
< 200 ft
Symboles :   Orages  Brouillard  Fortes neiges  Fortes précipitations  Vent > 20 kt
SIGMETs :   Divers  Orages  Givrage  Turbulence  Onde Orograph.  Cendres Volcan.






- Altitude de l'aérodrome : 100 ft


EBDT - Schaffen

DERNIER METAR :
  • 082055Z AUTO 17004KT 9999 NCD 01/00 Q1001 BLU

METARs EXPIRÉS :
  • 082025Z AUTO 17004KT 9999 NCD 02/01 Q1001 BLU
  • 081955Z AUTO 19003KT 9999 FEW240/// 03/01 Q1000 BLU
  • 081925Z AUTO 18005KT 9999 NCD 03/01 Q1000 BLU
  • 081855Z AUTO 19005KT 9999 NCD 03/01 Q1000 BLU
  • 081825Z AUTO 19005KT 9999 NCD 04/01 Q0999 BLU

TAF TAF EBDT
Valide du 08 à 19h jusqu'au 09 à 07h UTC


081541Z 0819/0907 21008KT 9999 FEW023 SCT026
BECMG 0904/0906 SCT013 BKN030



MET'MAP, la Météo Aéronautique d'un coup d'oeil ! - Copyright ORBIFLY Décembre 2007 - Disclaimer

ORBIFLY MET'MAP TEAM :

Programmation & Développement : Alexandra Zaïnal
Sur une idée originale de : Baudouin d'Aumeries
Assistance à la programmation : Marc-Olivier Méhu
Soutien technique & logistique : Manuel Goepfert

Contact : metmap@orbifly.com




SOURCES & CREDITS :

   NOAA